Time;durP1;ratioP1;P1;durP2;ratioP2;P2;SDS_P1;SDS_P2;PMS_P1;PMS_P2;Temp;Humidity;BMP_temperature;BMP_pressure;BME280_temperature;BME280_humidity;BME280_pressure;Samples;Min_cycle;Max_cycle;Signal;HPM_P1;HPM_P2
2023/01/04 11:37:46;;;;;;;0.40;0.30;;;;;;;;;;532456;27;20173;-64
2023/01/04 11:38:29;;;;;;;0.57;0.30;;;;;;;;;;531530;27;1609;-68
2023/01/04 11:38:54;;;;;;;1.00;0.40;;;;;;;;;;524506;27;1587;-59
2023/01/04 11:39:21;;;;;;;1.27;0.40;;;;;;;;;;530016;27;1423;-59
2023/01/04 11:39:38;;;;;;;0.95;0.40;;;;;;;;;;530281;27;1207;-59
2023/01/04 11:40:17;;;;;;;0.90;0.40;;;;;;;;;;529513;27;1101;-59
2023/01/04 11:40:32;;;;;;;1.00;0.50;;;;;;;;;;529495;27;1003;-59
2023/01/04 11:41:04;;;;;;;1.20;0.50;;;;;;;;;;526950;28;1190;-59
2023/01/04 11:41:19;;;;;;;1.30;0.50;;;;;;;;;;529503;27;1668;-59
2023/01/04 11:41:34;;;;;;;1.87;0.60;;;;;;;;;;528960;27;1602;-59
2023/01/04 11:41:58;;;;;;;1.93;0.60;;;;;;;;;;529425;27;1106;-59
2023/01/04 11:42:19;;;;;;;1.10;0.47;;;;;;;;;;529185;27;1633;-59
2023/01/04 11:42:35;;;;;;;1.40;0.50;;;;;;;;;;529134;27;1068;-59
2023/01/04 11:43:08;;;;;;;0.90;0.40;;;;;;;;;;530130;27;1164;-59
2023/01/04 11:43:26;;;;;;;0.77;0.40;;;;;;;;;;530390;27;1643;-59
2023/01/04 11:43:59;;;;;;;0.70;0.40;;;;;;;;;;532404;27;1136;-59
2023/01/04 11:44:18;;;;;;;0.40;0.30;;;;;;;;;;528221;27;988;-60
2023/01/04 11:44:34;;;;;;;0.80;0.40;;;;;;;;;;530934;27;1069;-59
2023/01/04 11:44:59;;;;;;;0.82;0.50;;;;;;;;;;530077;27;1283;-59
2023/01/04 11:45:26;;;;;;;1.17;0.50;;;;;;;;;;529143;27;1169;-59
2023/01/04 11:46:14;;;;;;;1.13;0.43;;;;;;;;;;528971;27;1212;-59
2023/01/04 11:46:31;;;;;;;1.00;0.40;;;;;;;;;;517878;28;1415;-58
2023/01/04 11:47:03;;;;;;;0.70;0.40;;;;;;;;;;527728;27;1339;-59
2023/01/04 11:47:20;;;;;;;1.35;0.40;;;;;;;;;;530420;27;1006;-59
2023/01/04 11:47:47;;;;;;;1.30;0.40;;;;;;;;;;528576;27;1191;-60
2023/01/04 11:48:05;;;;;;;1.30;0.40;;;;;;;;;;527650;27;1326;-60
2023/01/04 11:48:40;;;;;;;1.35;0.40;;;;;;;;;;529730;27;1110;-60
2023/01/04 11:48:56;;;;;;;1.30;0.50;;;;;;;;;;531694;27;1081;-59
2023/01/04 11:49:19;;;;;;;1.92;0.50;;;;;;;;;;531929;27;1068;-59
2023/01/04 11:49:36;;;;;;;1.25;0.55;;;;;;;;;;532311;27;1123;-58
2023/01/04 11:49:51;;;;;;;1.25;0.50;;;;;;;;;;531386;27;1073;-59
2023/01/04 11:50:37;;;;;;;2.30;0.53;;;;;;;;;;530204;27;1317;-59
2023/01/04 11:50:54;;;;;;;1.27;0.55;;;;;;;;;;529270;27;1461;-59
2023/01/04 11:51:28;;;;;;;1.05;0.50;;;;;;;;;;530076;27;1187;-60
2023/01/04 11:51:43;;;;;;;0.77;0.43;;;;;;;;;;529542;27;1125;-59
2023/01/04 11:51:59;;;;;;;1.03;0.40;;;;;;;;;;528253;27;1324;-59
2023/01/04 11:52:26;;;;;;;1.43;0.50;;;;;;;;;;528860;27;1105;-59
2023/01/04 11:52:44;;;;;;;1.35;0.50;;;;;;;;;;527282;27;1033;-59
2023/01/04 11:53:00;;;;;;;1.02;0.57;;;;;;;;;;526946;27;1128;-60
2023/01/04 11:53:28;;;;;;;1.27;0.53;;;;;;;;;;528760;27;1088;-59
2023/01/04 11:53:45;;;;;;;1.17;0.43;;;;;;;;;;525874;28;1018;-60
2023/01/04 11:54:04;;;;;;;1.00;0.50;;;;;;;;;;528780;28;1765;-61
2023/01/04 11:54:20;;;;;;;1.48;0.55;;;;;;;;;;527344;27;1428;-60
2023/01/04 11:54:35;;;;;;;1.17;0.50;;;;;;;;;;525222;28;1352;-60
2023/01/04 11:54:50;;;;;;;0.70;0.40;;;;;;;;;;527619;28;1160;-60
2023/01/04 11:55:26;;;;;;;1.17;0.50;;;;;;;;;;527635;28;1183;-60
2023/01/04 11:55:42;;;;;;;1.38;0.60;;;;;;;;;;527035;28;1481;-60
2023/01/04 11:56:22;;;;;;;0.73;0.50;;;;;;;;;;524444;28;1627;-60
2023/01/04 11:56:37;;;;;;;0.80;0.50;;;;;;;;;;526677;28;1010;-60
2023/01/04 11:57:06;;;;;;;1.00;0.50;;;;;;;;;;527343;27;1328;-59
2023/01/04 11:57:21;;;;;;;0.88;0.50;;;;;;;;;;527515;27;1293;-60
2023/01/04 11:57:37;;;;;;;1.20;0.60;;;;;;;;;;528930;27;1953;-60
2023/01/04 11:58:26;;;;;;;1.20;0.60;;;;;;;;;;529952;27;1364;-59
2023/01/04 11:58:44;;;;;;;0.98;0.55;;;;;;;;;;522441;28;1589;-60
2023/01/04 11:59:13;;;;;;;1.35;0.60;;;;;;;;;;520819;28;1535;-60
2023/01/04 11:59:28;;;;;;;1.27;0.75;;;;;;;;;;520402;28;1277;-60
2023/01/04 11:59:43;;;;;;;2.40;0.80;;;;;;;;;;518170;28;1583;-60
2023/01/04 12:00:17;;;;;;;2.53;0.77;;;;;;;;;;525203;28;1132;-60
2023/01/04 12:00:33;;;;;;;1.50;0.40;;;;;;;;;;524517;28;969;-60
2023/01/04 12:00:53;;;;;;;1.77;0.50;;;;;;;;;;523341;28;1545;-60
2023/01/04 12:01:22;;;;;;;1.20;0.52;;;;;;;;;;524673;28;1440;-60
2023/01/04 12:01:43;;;;;;;2.22;0.77;;;;;;;;;;525243;27;1043;-59
2023/01/04 12:02:24;;;;;;;2.72;1.13;;;;;;;;;;526572;28;1304;-60
2023/01/04 12:02:39;;;;;;;1.35;0.70;;;;;;;;;;526834;27;1114;-59
2023/01/04 12:03:10;;;;;;;1.20;0.60;;;;;;;;;;527941;28;1198;-60
2023/01/04 12:03:39;;;;;;;1.35;0.65;;;;;;;;;;527442;28;1188;-59
2023/01/04 12:03:54;;;;;;;1.42;0.60;;;;;;;;;;527468;27;1181;-60
2023/01/04 12:04:35;;;;;;;1.40;0.50;;;;;;;;;;529151;27;1452;-60
2023/01/04 12:04:52;;;;;;;1.75;0.50;;;;;;;;;;527124;27;1127;-60
2023/01/04 12:05:20;;;;;;;1.98;0.50;;;;;;;;;;531897;27;1065;-60
2023/01/04 12:05:36;;;;;;;1.45;0.50;;;;;;;;;;531889;27;1160;-60
2023/01/04 12:05:51;;;;;;;1.60;0.50;;;;;;;;;;529503;27;1502;-60
2023/01/04 12:06:15;;;;;;;1.40;0.50;;;;;;;;;;526667;28;1257;-60
2023/01/04 12:06:41;;;;;;;1.50;0.60;;;;;;;;;;527010;28;1137;-60
2023/01/04 12:07:01;;;;;;;1.23;0.60;;;;;;;;;;527670;27;1132;-60
2023/01/04 12:07:34;;;;;;;1.23;0.50;;;;;;;;;;527598;28;1105;-60
2023/01/04 12:07:49;;;;;;;2.22;0.57;;;;;;;;;;529635;27;1128;-60
2023/01/04 12:08:05;;;;;;;1.27;0.63;;;;;;;;;;529525;27;1336;-60
2023/01/04 12:08:36;;;;;;;1.23;0.80;;;;;;;;;;529007;27;1241;-60
2023/01/04 12:08:51;;;;;;;1.40;0.60;;;;;;;;;;529194;27;1028;-60
2023/01/04 12:09:13;;;;;;;1.57;0.60;;;;;;;;;;529016;27;982;-60
2023/01/04 12:09:29;;;;;;;1.40;0.40;;;;;;;;;;529133;27;1121;-60
2023/01/04 12:09:44;;;;;;;1.40;0.50;;;;;;;;;;529029;27;2032;-61
2023/01/04 12:10:14;;;;;;;1.23;0.60;;;;;;;;;;528681;27;1432;-60
2023/01/04 12:10:29;;;;;;;1.38;0.50;;;;;;;;;;529326;27;1341;-61
2023/01/04 12:10:45;;;;;;;1.60;0.53;;;;;;;;;;529334;27;1458;-60
2023/01/04 12:11:03;;;;;;;1.60;0.60;;;;;;;;;;527431;28;1296;-60
2023/01/04 12:11:28;;;;;;;1.23;0.50;;;;;;;;;;525547;28;1251;-60
2023/01/04 12:11:55;;;;;;;1.00;0.40;;;;;;;;;;522315;28;2294;-60
2023/01/04 12:12:11;;;;;;;1.50;0.50;;;;;;;;;;523872;28;1150;-60
2023/01/04 12:12:32;;;;;;;1.75;0.65;;;;;;;;;;525658;28;1966;-59
2023/01/04 12:12:48;;;;;;;1.58;0.70;;;;;;;;;;524240;28;1714;-60
2023/01/04 12:13:08;;;;;;;1.42;0.80;;;;;;;;;;524206;28;1454;-60
2023/01/04 12:13:23;;;;;;;1.35;0.60;;;;;;;;;;523986;28;1321;-60
2023/01/04 12:13:39;;;;;;;1.37;0.50;;;;;;;;;;523711;28;1131;-60
2023/01/04 12:13:57;;;;;;;1.67;0.55;;;;;;;;;;527060;28;1162;-59
2023/01/04 12:14:28;;;;;;;1.90;0.60;;;;;;;;;;527963;28;1200;-60
2023/01/04 12:14:47;;;;;;;1.48;0.50;;;;;;;;;;527093;27;1137;-60
2023/01/04 12:15:09;;;;;;;1.27;0.40;;;;;;;;;;531905;27;1085;-60
2023/01/04 12:15:43;;;;;;;1.20;0.50;;;;;;;;;;531024;27;1089;-60
2023/01/04 12:16:15;;;;;;;2.28;0.40;;;;;;;;;;528419;27;1153;-60
2023/01/04 12:16:53;;;;;;;1.05;0.60;;;;;;;;;;528702;27;1028;-60
2023/01/04 12:17:34;;;;;;;0.98;0.40;;;;;;;;;;522848;28;971;-60
2023/01/04 12:18:01;;;;;;;1.30;0.47;;;;;;;;;;518354;28;1387;-60
2023/01/04 12:18:29;;;;;;;1.33;0.50;;;;;;;;;;530157;27;1222;-60
2023/01/04 12:18:45;;;;;;;0.70;0.40;;;;;;;;;;531980;27;1351;-61
2023/01/04 12:19:02;;;;;;;1.27;0.60;;;;;;;;;;532110;27;922;-60
2023/01/04 12:19:20;;;;;;;1.73;0.57;;;;;;;;;;529178;27;1411;-60
2023/01/04 12:19:36;;;;;;;1.15;0.40;;;;;;;;;;528426;27;1339;-60
2023/01/04 12:19:54;;;;;;;1.10;0.40;;;;;;;;;;528856;27;1157;-60
2023/01/04 12:20:16;;;;;;;1.45;0.35;;;;;;;;;;526529;27;1543;-59
2023/01/04 12:20:31;;;;;;;1.52;0.45;;;;;;;;;;527298;28;1290;-60
2023/01/04 12:20:46;;;;;;;1.60;0.40;;;;;;;;;;524916;28;1345;-60
2023/01/04 12:21:02;;;;;;;1.50;0.70;;;;;;;;;;524204;28;1717;-60
2023/01/04 12:21:25;;;;;;;1.40;0.80;;;;;;;;;;523113;28;1447;-60
2023/01/04 12:21:44;;;;;;;1.27;0.50;;;;;;;;;;522650;28;991;-60
2023/01/04 12:22:01;;;;;;;1.58;0.95;;;;;;;;;;522683;28;1094;-61
2023/01/04 12:22:36;;;;;;;2.92;2.63;;;;;;;;;;522286;28;1503;-60
2023/01/04 12:22:51;;;;;;;2.83;2.47;;;;;;;;;;522463;28;1123;-60
2023/01/04 12:23:10;;;;;;;2.10;1.80;;;;;;;;;;525898;28;1345;-61
2023/01/04 12:23:26;;;;;;;2.30;2.08;;;;;;;;;;526329;28;2261;-60
2023/01/04 12:23:41;;;;;;;1.93;1.27;;;;;;;;;;527256;28;1277;-60
2023/01/04 12:23:57;;;;;;;1.23;0.68;;;;;;;;;;528806;27;1005;-60
2023/01/04 12:24:17;;;;;;;0.67;0.43;;;;;;;;;;529235;27;1137;-60
2023/01/04 12:24:33;;;;;;;0.82;0.40;;;;;;;;;;529295;27;1022;-60
2023/01/04 12:24:49;;;;;;;0.77;0.40;;;;;;;;;;530214;27;1124;-60
2023/01/04 12:25:20;;;;;;;0.67;0.40;;;;;;;;;;529001;27;1164;-59
2023/01/04 12:25:41;;;;;;;0.90;0.30;;;;;;;;;;529969;27;883;-60
2023/01/04 12:25:56;;;;;;;1.35;0.85;;;;;;;;;;527933;27;1752;-60
2023/01/04 12:26:13;;;;;;;1.88;1.58;;;;;;;;;;529954;27;1192;-60
2023/01/04 12:26:28;;;;;;;1.85;1.02;;;;;;;;;;529271;27;1481;-60
2023/01/04 12:26:44;;;;;;;1.23;0.40;;;;;;;;;;528181;27;1408;-60
2023/01/04 12:27:00;;;;;;;0.57;0.30;;;;;;;;;;527342;27;1369;-60
2023/01/04 12:27:16;;;;;;;0.80;0.35;;;;;;;;;;528734;27;1676;-60
2023/01/04 12:27:32;;;;;;;1.37;0.53;;;;;;;;;;528287;27;1824;-61
2023/01/04 12:27:50;;;;;;;1.50;0.55;;;;;;;;;;529719;27;1144;-60
2023/01/04 12:28:05;;;;;;;1.23;0.50;;;;;;;;;;528824;27;1109;-60
2023/01/04 12:28:33;;;;;;;1.00;0.60;;;;;;;;;;529899;27;1302;-60
2023/01/04 12:29:10;;;;;;;1.50;1.08;;;;;;;;;;529501;27;972;-60
2023/01/04 12:29:32;;;;;;;1.48;0.93;;;;;;;;;;529321;27;1297;-60
2023/01/04 12:30:02;;;;;;;2.17;1.80;;;;;;;;;;528799;27;1230;-60
2023/01/04 12:30:34;;;;;;;1.42;0.82;;;;;;;;;;529161;27;1212;-60
2023/01/04 12:30:50;;;;;;;1.63;1.15;;;;;;;;;;528236;27;1418;-60
2023/01/04 12:31:17;;;;;;;1.50;1.17;;;;;;;;;;527327;28;1420;-60
2023/01/04 12:31:32;;;;;;;0.95;0.55;;;;;;;;;;527420;28;1151;-60
2023/01/04 12:31:52;;;;;;;0.90;0.40;;;;;;;;;;525141;28;1469;-60
2023/01/04 12:32:10;;;;;;;1.10;0.30;;;;;;;;;;525405;28;1428;-60
2023/01/04 12:32:25;;;;;;;1.38;0.38;;;;;;;;;;525056;28;1618;-60
2023/01/04 12:32:42;;;;;;;1.03;0.40;;;;;;;;;;523247;28;1254;-60
2023/01/04 12:32:57;;;;;;;0.60;0.30;;;;;;;;;;525273;28;1291;-60
2023/01/04 12:33:37;;;;;;;1.23;0.37;;;;;;;;;;525238;28;1218;-60
2023/01/04 12:33:55;;;;;;;2.53;2.30;;;;;;;;;;524664;28;1442;-60
2023/01/04 12:34:22;;;;;;;3.03;2.72;;;;;;;;;;525707;28;1306;-60
2023/01/04 12:34:41;;;;;;;2.70;2.08;;;;;;;;;;523763;28;1412;-60
2023/01/04 12:34:56;;;;;;;3.40;2.90;;;;;;;;;;526362;28;1636;-60
2023/01/04 12:35:48;;;;;;;1.80;1.65;;;;;;;;;;528052;27;1536;-60
2023/01/04 12:36:10;;;;;;;0.40;0.30;;;;;;;;;;528731;27;1256;-60
2023/01/04 12:36:38;;;;;;;0.70;0.30;;;;;;;;;;528633;27;1018;-60
2023/01/04 12:37:00;;;;;;;0.80;0.30;;;;;;;;;;527488;28;1261;-60
2023/01/04 12:37:37;;;;;;;1.35;0.30;;;;;;;;;;529121;27;1492;-60
2023/01/04 12:37:52;;;;;;;1.67;0.43;;;;;;;;;;525495;28;1697;-60
2023/01/04 12:38:09;;;;;;;1.57;0.50;;;;;;;;;;526510;28;1177;-60
2023/01/04 12:38:50;;;;;;;1.73;0.40;;;;;;;;;;525095;28;1246;-60
2023/01/04 12:39:40;;;;;;;1.30;0.40;;;;;;;;;;517502;28;1387;-60
2023/01/04 12:39:55;;;;;;;1.23;0.57;;;;;;;;;;519495;28;1310;-60
2023/01/04 12:40:46;;;;;;;3.10;2.25;;;;;;;;;;527759;27;1249;-60
2023/01/04 12:41:01;;;;;;;1.75;0.30;;;;;;;;;;520077;28;1301;-60
2023/01/04 12:41:24;;;;;;;1.90;0.38;;;;;;;;;;520128;28;1480;-60
2023/01/04 12:41:39;;;;;;;1.17;0.40;;;;;;;;;;520106;28;1193;-60
2023/01/04 12:42:00;;;;;;;1.57;1.13;;;;;;;;;;522502;28;1113;-60
2023/01/04 12:42:23;;;;;;;2.95;2.38;;;;;;;;;;527082;27;1260;-60
2023/01/04 12:43:13;;;;;;;4.72;4.10;;;;;;;;;;529413;27;1296;-61
2023/01/04 12:43:36;;;;;;;1.70;0.60;;;;;;;;;;528291;27;1298;-61
2023/01/04 12:43:52;;;;;;;1.08;0.40;;;;;;;;;;526358;28;1304;-60
2023/01/04 12:44:35;;;;;;;1.00;0.50;;;;;;;;;;525398;28;1019;-60
2023/01/04 12:44:50;;;;;;;2.40;1.80;;;;;;;;;;524170;28;936;-64
2023/01/04 12:45:13;;;;;;;1.70;1.33;;;;;;;;;;524513;28;1142;-61
2023/01/04 12:45:29;;;;;;;0.75;0.43;;;;;;;;;;526437;27;1619;-60
2023/01/04 12:45:47;;;;;;;1.05;0.40;;;;;;;;;;525754;28;1310;-62
2023/01/04 12:49:27;;;;;;;1.58;0.47;;;;;;;;;;531030;27;929;-61
2023/01/04 12:49:44;;;;;;;1.48;0.95;;;;;;;;;;526436;27;1132;-61
2023/01/04 12:50:02;;;;;;;1.48;1.00;;;;;;;;;;526973;27;1219;-60
2023/01/04 12:50:26;;;;;;;0.47;0.30;;;;;;;;;;526396;28;1270;-59
2023/01/04 12:51:16;;;;;;;0.77;0.30;;;;;;;;;;526227;28;1369;-63
2023/01/04 12:51:31;;;;;;;1.20;0.45;;;;;;;;;;526066;27;1217;-60
2023/01/04 12:51:47;;;;;;;0.85;0.30;;;;;;;;;;526310;28;1214;-60
2023/01/04 12:52:08;;;;;;;1.53;0.67;;;;;;;;;;525924;28;1136;-60
2023/01/04 12:52:23;;;;;;;2.60;1.70;;;;;;;;;;523038;28;1089;-60
2023/01/04 12:52:43;;;;;;;0.83;0.47;;;;;;;;;;524088;28;1308;-60
2023/01/04 12:53:02;;;;;;;0.60;0.30;;;;;;;;;;523789;28;1254;-60
2023/01/04 12:53:48;;;;;;;1.30;0.68;;;;;;;;;;523766;28;1069;-60
2023/01/04 12:54:05;;;;;;;1.70;1.25;;;;;;;;;;523273;28;1102;-60
2023/01/04 12:54:30;;;;;;;2.33;1.40;;;;;;;;;;525839;27;1160;-60
2023/01/04 12:54:48;;;;;;;0.77;0.35;;;;;;;;;;527864;27;969;-60
2023/01/04 12:55:31;;;;;;;0.50;0.28;;;;;;;;;;530103;27;1438;-60
2023/01/04 12:55:53;;;;;;;1.33;0.40;;;;;;;;;;528528;27;1400;-60
2023/01/04 12:56:08;;;;;;;1.42;0.30;;;;;;;;;;527466;27;998;-60
2023/01/04 12:57:02;;;;;;;0.80;0.40;;;;;;;;;;527984;27;1101;-60
2023/01/04 12:57:17;;;;;;;2.67;1.17;;;;;;;;;;527403;27;1204;-60
2023/01/04 12:57:33;;;;;;;2.70;1.70;;;;;;;;;;527345;27;1907;-60
2023/01/04 12:57:49;;;;;;;3.25;1.73;;;;;;;;;;526114;28;1153;-60
2023/01/04 12:58:38;;;;;;;2.33;1.07;;;;;;;;;;526047;28;1199;-60
2023/01/04 12:59:09;;;;;;;1.20;0.45;;;;;;;;;;522693;28;1231;-60
2023/01/04 12:59:35;;;;;;;0.85;0.30;;;;;;;;;;523980;28;1605;-60
2023/01/04 12:59:56;;;;;;;1.13;0.30;;;;;;;;;;525902;28;1157;-60
2023/01/04 13:00:13;;;;;;;1.30;0.70;;;;;;;;;;525258;28;1263;-61
2023/01/04 13:00:47;;;;;;;1.25;0.73;;;;;;;;;;523744;28;1449;-60
2023/01/04 13:01:03;;;;;;;0.95;0.40;;;;;;;;;;523441;28;1157;-60
2023/01/04 13:01:26;;;;;;;0.43;0.25;;;;;;;;;;521860;28;995;-60
2023/01/04 13:02:27;;;;;;;0.50;0.40;;;;;;;;;;523021;28;932;-60
2023/01/04 13:03:06;;;;;;;0.43;0.30;;;;;;;;;;523686;27;1587;-60
2023/01/04 13:03:23;;;;;;;0.50;0.40;;;;;;;;;;529551;27;1070;-60
2023/01/04 13:03:47;;;;;;;0.28;0.20;;;;;;;;;;530350;27;1150;-60
2023/01/04 13:04:36;;;;;;;0.60;0.40;;;;;;;;;;529331;27;1073;-60
2023/01/04 13:04:56;;;;;;;0.50;0.40;;;;;;;;;;530498;27;1097;-61
2023/01/04 13:05:17;;;;;;;0.57;0.43;;;;;;;;;;530752;27;1199;-60
2023/01/04 13:05:35;;;;;;;0.93;0.50;;;;;;;;;;527085;27;1090;-60
2023/01/04 13:06:05;;;;;;;0.60;0.30;;;;;;;;;;527347;27;1081;-61
2023/01/04 13:06:22;;;;;;;0.63;0.30;;;;;;;;;;523751;27;2301;-60
2023/01/04 13:06:44;;;;;;;0.90;0.32;;;;;;;;;;205284;28;10000661;-60
2023/01/04 13:07:12;;;;;;;0.60;0.25;;;;;;;;;;518602;28;1420;-61
2023/01/04 13:07:31;;;;;;;0.63;0.25;;;;;;;;;;522180;28;1288;-61
2023/01/04 13:07:52;;;;;;;0.43;0.30;;;;;;;;;;519630;28;1532;-60
2023/01/04 13:08:10;;;;;;;0.95;0.35;;;;;;;;;;519625;28;1695;-61
2023/01/04 13:08:31;;;;;;;0.80;0.30;;;;;;;;;;521728;28;1292;-61
2023/01/04 13:08:49;;;;;;;1.13;0.30;;;;;;;;;;521420;28;1429;-60
2023/01/04 13:09:16;;;;;;;1.40;0.30;;;;;;;;;;521080;28;1227;-61
2023/01/04 13:09:32;;;;;;;0.95;0.50;;;;;;;;;;521465;28;1469;-61
2023/01/04 13:09:53;;;;;;;0.67;0.40;;;;;;;;;;522278;28;1530;-60
2023/01/04 13:10:18;;;;;;;0.90;0.28;;;;;;;;;;522596;28;1574;-61
2023/01/04 13:10:41;;;;;;;0.98;0.30;;;;;;;;;;521329;28;1462;-60
2023/01/04 13:10:56;;;;;;;0.50;0.30;;;;;;;;;;523050;28;1423;-61
2023/01/04 13:11:39;;;;;;;0.65;0.30;;;;;;;;;;521069;28;1222;-60
2023/01/04 13:12:06;;;;;;;1.50;0.40;;;;;;;;;;522715;28;1237;-60
2023/01/04 13:12:30;;;;;;;0.50;0.40;;;;;;;;;;525697;28;1219;-61
2023/01/04 13:12:58;;;;;;;0.40;0.32;;;;;;;;;;527870;27;1267;-61
2023/01/04 13:13:40;;;;;;;0.30;0.20;;;;;;;;;;527779;27;1520;-61
2023/01/04 13:14:16;;;;;;;0.60;0.30;;;;;;;;;;526845;27;1151;-61
2023/01/04 13:14:48;;;;;;;0.90;0.30;;;;;;;;;;524720;28;1612;-61
2023/01/04 13:15:34;;;;;;;0.80;0.30;;;;;;;;;;526158;27;1347;-60
2023/01/04 13:16:07;;;;;;;0.47;0.30;;;;;;;;;;517770;28;1400;-61
2023/01/04 13:16:38;;;;;;;0.63;0.40;;;;;;;;;;515437;28;1269;-61
2023/01/04 13:17:17;;;;;;;1.50;0.60;;;;;;;;;;521834;28;1327;-60
2023/01/04 13:17:38;;;;;;;0.70;0.20;;;;;;;;;;522511;28;1987;-60
2023/01/04 13:17:56;;;;;;;0.80;0.20;;;;;;;;;;522929;28;1897;-61
2023/01/04 13:18:26;;;;;;;0.70;0.30;;;;;;;;;;523854;28;1101;-60
2023/01/04 13:19:03;;;;;;;0.57;0.30;;;;;;;;;;525409;28;1347;-60
2023/01/04 13:19:23;;;;;;;0.50;0.20;;;;;;;;;;526832;27;1588;-61
2023/01/04 13:19:40;;;;;;;0.63;0.25;;;;;;;;;;529844;27;1093;-61
2023/01/04 13:19:56;;;;;;;1.00;0.30;;;;;;;;;;527726;27;1512;-61
2023/01/04 13:20:20;;;;;;;0.98;0.30;;;;;;;;;;528050;27;1441;-60
2023/01/04 13:20:37;;;;;;;0.85;0.20;;;;;;;;;;527682;27;1342;-60
2023/01/04 13:20:53;;;;;;;1.50;0.45;;;;;;;;;;527545;27;1600;-60
2023/01/04 13:21:44;;;;;;;1.25;0.75;;;;;;;;;;524452;28;1144;-61
2023/01/04 13:22:00;;;;;;;1.52;0.30;;;;;;;;;;526499;27;1135;-61
2023/01/04 13:22:26;;;;;;;0.77;0.30;;;;;;;;;;526131;27;1176;-60
2023/01/04 13:22:49;;;;;;;1.27;0.40;;;;;;;;;;527217;27;1722;-60
2023/01/04 13:23:10;;;;;;;1.15;0.40;;;;;;;;;;524858;28;2233;-61
2023/01/04 13:23:26;;;;;;;1.25;0.30;;;;;;;;;;525842;28;1053;-61
2023/01/04 13:23:48;;;;;;;1.20;0.30;;;;;;;;;;525369;28;1444;-61
2023/01/04 13:24:26;;;;;;;0.60;0.30;;;;;;;;;;526488;27;1300;-60
2023/01/04 13:24:42;;;;;;;0.35;0.20;;;;;;;;;;525161;28;1465;-61
2023/01/04 13:25:01;;;;;;;0.60;0.20;;;;;;;;;;525478;27;1113;-61
2023/01/04 13:25:18;;;;;;;0.45;0.20;;;;;;;;;;527084;27;1173;-60
2023/01/04 13:25:35;;;;;;;0.77;0.47;;;;;;;;;;527360;27;1154;-61
2023/01/04 13:25:50;;;;;;;0.77;0.52;;;;;;;;;;527189;27;1697;-61
2023/01/04 13:26:27;;;;;;;1.13;0.60;;;;;;;;;;524108;28;1351;-61
2023/01/04 13:26:47;;;;;;;0.80;0.60;;;;;;;;;;523750;28;1446;-61
2023/01/04 13:27:09;;;;;;;0.65;0.40;;;;;;;;;;523139;28;1096;-60
2023/01/04 13:27:25;;;;;;;0.70;0.30;;;;;;;;;;522781;28;1633;-61
2023/01/04 13:28:00;;;;;;;0.63;0.30;;;;;;;;;;523507;28;1418;-60
2023/01/04 13:28:17;;;;;;;0.75;0.45;;;;;;;;;;526907;27;1264;-60
2023/01/04 13:28:34;;;;;;;0.95;0.82;;;;;;;;;;526359;27;1382;-60
2023/01/04 13:29:04;;;;;;;1.40;1.10;;;;;;;;;;525253;28;1404;-60
2023/01/04 13:29:22;;;;;;;1.10;0.60;;;;;;;;;;526527;27;1609;-60
2023/01/04 13:29:39;;;;;;;1.17;1.08;;;;;;;;;;523880;28;1396;-60
2023/01/04 13:29:55;;;;;;;1.08;1.00;;;;;;;;;;525655;28;1180;-60
2023/01/04 13:30:36;;;;;;;0.40;0.33;;;;;;;;;;523237;28;1694;-62
2023/01/04 13:30:58;;;;;;;0.45;0.30;;;;;;;;;;525583;28;1134;-62
2023/01/04 13:31:14;;;;;;;0.90;0.30;;;;;;;;;;525503;28;2072;-61
2023/01/04 13:31:29;;;;;;;0.50;0.20;;;;;;;;;;525950;27;1291;-61
2023/01/04 13:31:50;;;;;;;1.20;0.30;;;;;;;;;;526474;27;1437;-62
2023/01/04 13:32:08;;;;;;;1.45;0.30;;;;;;;;;;525349;27;1423;-61
2023/01/04 13:32:26;;;;;;;0.50;0.30;;;;;;;;;;523396;28;1410;-62
2023/01/04 13:32:42;;;;;;;0.65;0.35;;;;;;;;;;524268;28;1430;-65
2023/01/04 13:32:58;;;;;;;0.80;0.40;;;;;;;;;;523403;28;1232;-61
2023/01/04 13:33:20;;;;;;;0.60;0.30;;;;;;;;;;521582;28;1239;-61
2023/01/04 13:33:35;;;;;;;0.40;0.22;;;;;;;;;;520348;28;1594;-61
2023/01/04 13:33:51;;;;;;;0.40;0.30;;;;;;;;;;519103;28;1819;-62
2023/01/04 13:34:16;;;;;;;0.50;0.30;;;;;;;;;;521177;28;1351;-62
2023/01/04 13:35:15;;;;;;;0.50;0.30;;;;;;;;;;521012;28;1089;-62
2023/01/04 13:35:30;;;;;;;1.13;0.60;;;;;;;;;;515399;28;1497;-61
2023/01/04 13:36:07;;;;;;;0.90;0.57;;;;;;;;;;512278;28;1402;-62
2023/01/04 13:36:22;;;;;;;0.90;0.30;;;;;;;;;;515251;28;1104;-61
2023/01/04 13:36:38;;;;;;;1.00;0.30;;;;;;;;;;515521;28;1389;-61
2023/01/04 13:36:57;;;;;;;1.10;0.30;;;;;;;;;;513111;28;1848;-61
2023/01/04 13:37:21;;;;;;;0.70;0.30;;;;;;;;;;511179;28;1650;-61
2023/01/04 13:37:39;;;;;;;0.57;0.52;;;;;;;;;;511628;28;2026;-61
2023/01/04 13:37:54;;;;;;;0.98;0.63;;;;;;;;;;509285;28;1707;-62
2023/01/04 13:38:14;;;;;;;0.70;0.47;;;;;;;;;;509853;28;1584;-62
2023/01/04 13:38:33;;;;;;;0.75;0.50;;;;;;;;;;510263;28;1846;-61
2023/01/04 13:38:48;;;;;;;0.73;0.50;;;;;;;;;;511008;28;1566;-62
2023/01/04 13:39:06;;;;;;;0.52;0.50;;;;;;;;;;511872;28;1384;-62
2023/01/04 13:39:22;;;;;;;0.40;0.30;;;;;;;;;;512214;28;1153;-61
2023/01/04 13:39:40;;;;;;;0.70;0.30;;;;;;;;;;513724;28;1338;-62
2023/01/04 13:40:19;;;;;;;0.88;0.30;;;;;;;;;;515838;28;1299;-62
2023/01/04 13:40:34;;;;;;;0.80;0.20;;;;;;;;;;517200;28;1068;-61
2023/01/04 13:40:50;;;;;;;0.73;0.40;;;;;;;;;;518254;28;1199;-62
2023/01/04 13:41:19;;;;;;;1.20;0.40;;;;;;;;;;516352;28;1333;-61
2023/01/04 13:41:35;;;;;;;0.77;0.40;;;;;;;;;;516278;28;1587;-61
2023/01/04 13:41:51;;;;;;;0.80;0.43;;;;;;;;;;515291;28;1939;-61
2023/01/04 13:42:30;;;;;;;1.00;0.40;;;;;;;;;;515601;28;1386;-61
2023/01/04 13:42:48;;;;;;;1.38;0.38;;;;;;;;;;506702;29;1467;-61
2023/01/04 13:43:29;;;;;;;0.95;0.40;;;;;;;;;;515692;28;1361;-61
2023/01/04 13:44:01;;;;;;;0.47;0.30;;;;;;;;;;514006;28;1384;-61
2023/01/04 13:44:48;;;;;;;0.47;0.30;;;;;;;;;;514452;28;1138;-62
2023/01/04 13:45:07;;;;;;;0.65;0.30;;;;;;;;;;516331;28;3072;-61
2023/01/04 13:45:39;;;;;;;0.50;0.20;;;;;;;;;;515318;28;1430;-61
2023/01/04 13:46:09;;;;;;;0.80;0.30;;;;;;;;;;514840;28;1373;-61
2023/01/04 13:46:26;;;;;;;1.10;0.40;;;;;;;;;;514384;28;1055;-61
2023/01/04 13:46:42;;;;;;;0.68;0.40;;;;;;;;;;515209;28;1041;-61
2023/01/04 13:46:59;;;;;;;0.60;0.32;;;;;;;;;;514228;28;1190;-61
2023/01/04 13:47:15;;;;;;;0.50;0.30;;;;;;;;;;513922;28;1355;-61
2023/01/04 13:47:35;;;;;;;0.40;0.30;;;;;;;;;;513662;28;1382;-61
2023/01/04 13:47:54;;;;;;;0.73;0.30;;;;;;;;;;514910;28;1331;-60
2023/01/04 13:48:13;;;;;;;0.73;0.28;;;;;;;;;;515012;28;1634;-61
2023/01/04 13:48:34;;;;;;;0.40;0.20;;;;;;;;;;515114;28;1417;-61
2023/01/04 13:48:53;;;;;;;0.30;0.25;;;;;;;;;;513756;28;1417;-61
2023/01/04 13:49:13;;;;;;;0.30;0.30;;;;;;;;;;512158;28;2275;-61
2023/01/04 13:49:29;;;;;;;0.50;0.20;;;;;;;;;;515293;28;1171;-61
2023/01/04 13:49:44;;;;;;;0.90;0.20;;;;;;;;;;515580;28;1687;-60
2023/01/04 13:50:00;;;;;;;0.87;0.30;;;;;;;;;;515968;28;1210;-61
2023/01/04 13:50:26;;;;;;;0.55;0.30;;;;;;;;;;515676;28;1429;-61
2023/01/04 13:50:47;;;;;;;0.40;0.30;;;;;;;;;;515071;28;1159;-62
2023/01/04 13:51:21;;;;;;;0.52;0.40;;;;;;;;;;514678;28;1330;-61
2023/01/04 13:51:37;;;;;;;0.90;0.38;;;;;;;;;;512901;28;1276;-61
2023/01/04 13:51:52;;;;;;;0.75;0.30;;;;;;;;;;513021;28;1261;-61
2023/01/04 13:52:34;;;;;;;0.50;0.30;;;;;;;;;;513800;28;1274;-61
2023/01/04 13:52:49;;;;;;;0.43;0.20;;;;;;;;;;513493;28;1887;-61
2023/01/04 13:53:04;;;;;;;0.60;0.20;;;;;;;;;;513567;28;1314;-61
2023/01/04 13:53:23;;;;;;;0.90;0.20;;;;;;;;;;515254;28;1158;-61
2023/01/04 13:53:38;;;;;;;0.90;0.30;;;;;;;;;;513059;28;1311;-61
2023/01/04 13:53:55;;;;;;;0.40;0.20;;;;;;;;;;512994;28;1264;-61
2023/01/04 13:54:22;;;;;;;0.32;0.20;;;;;;;;;;512139;28;1132;-61
2023/01/04 13:54:37;;;;;;;0.85;0.20;;;;;;;;;;512446;28;1919;-61
2023/01/04 13:55:20;;;;;;;0.77;0.27;;;;;;;;;;513779;28;1084;-61
2023/01/04 13:55:37;;;;;;;0.80;0.25;;;;;;;;;;517025;28;1393;-61
2023/01/04 13:55:55;;;;;;;0.43;0.20;;;;;;;;;;517408;28;1172;-60
2023/01/04 13:56:20;;;;;;;0.68;0.30;;;;;;;;;;516107;28;1689;-61
2023/01/04 13:56:35;;;;;;;0.60;0.30;;;;;;;;;;516623;28;1215;-61
2023/01/04 13:56:53;;;;;;;0.40;0.20;;;;;;;;;;515482;28;1509;-61
2023/01/04 13:57:08;;;;;;;0.55;0.20;;;;;;;;;;516292;28;1217;-61
2023/01/04 13:57:24;;;;;;;0.45;0.20;;;;;;;;;;515692;28;1091;-61
2023/01/04 13:57:57;;;;;;;0.60;0.20;;;;;;;;;;514691;28;1991;-61
2023/01/04 13:58:18;;;;;;;0.60;0.30;;;;;;;;;;517046;28;1802;-61
2023/01/04 13:58:34;;;;;;;0.90;0.30;;;;;;;;;;517264;28;1341;-61
2023/01/04 13:58:50;;;;;;;0.63;0.20;;;;;;;;;;518038;28;1360;-61
2023/01/04 13:59:07;;;;;;;0.32;0.20;;;;;;;;;;516307;28;1078;-61
2023/01/04 13:59:23;;;;;;;0.30;0.20;;;;;;;;;;516440;28;2288;-61
2023/01/04 13:59:38;;;;;;;0.53;0.20;;;;;;;;;;515051;28;1092;-61
2023/01/04 13:59:53;;;;;;;0.60;0.20;;;;;;;;;;516240;28;1167;-61
2023/01/04 14:00:12;;;;;;;0.30;0.20;;;;;;;;;;515452;28;1295;-62
2023/01/04 14:00:45;;;;;;;0.30;0.20;;;;;;;;;;515517;28;1119;-61
2023/01/04 14:01:05;;;;;;;0.43;0.40;;;;;;;;;;511492;28;1721;-61
2023/01/04 14:01:31;;;;;;;1.02;0.40;;;;;;;;;;513485;28;1335;-61
2023/01/04 14:01:47;;;;;;;0.80;0.20;;;;;;;;;;514313;28;1334;-61
2023/01/04 14:02:03;;;;;;;0.70;0.20;;;;;;;;;;514122;28;1222;-61
2023/01/04 14:02:20;;;;;;;0.67;0.23;;;;;;;;;;515352;28;1361;-61
2023/01/04 14:02:35;;;;;;;0.52;0.22;;;;;;;;;;515501;28;1724;-61
2023/01/04 14:03:40;;;;;;;0.60;0.30;;;;;;;;;;516515;28;1111;-61
2023/01/04 14:04:00;;;;;;;0.80;0.30;;;;;;;;;;513329;28;1488;-61